Flight Track Log - Related Links

Times and Time Zones

All times are in EDT time to prevent confusion due to time zone crossing. See the N631S flight status page for this flight to view local times or setup timezone preferences in your user account.

Time Position Orientation Groundspeed Altitude Reporting Facility
EDT Latitude Longitude Course Direction KTS MPH feet Rate Location/Type
Fri 03:44:45 PM 41.1667 -73.1667 323° Northwest 60 69 1,000  Level New York TRACON
Fri 03:45:45 PM 41.1833 -73.1833 323° Northwest 77 89 1,700 750 Climbing New York TRACON
Fri 03:46:45 PM 41.2000 -73.2000 323° Northwest 77 89 2,500 800 Climbing New York TRACON
Fri 03:47:45 PM 41.2167 -73.2167 323° Northwest 82 94 3,300 750 Climbing New York TRACON
Fri 03:48:45 PM 41.2500 -73.2167 360° North 85 98 4,000 700 Climbing New York TRACON
Fri 03:49:45 PM 41.2667 -73.2000 37° Northeast 82 94 4,700 700 Climbing New York TRACON
Fri 03:50:45 PM 41.2833 -73.2167 323° Northwest 76 87 5,400 700 Climbing New York TRACON
Fri 03:51:45 PM 41.3000 -73.2167 360° North 75 86 6,100 397 Climbing New York TRACON
Fri 03:52:46 PM 41.3000 -73.2667 270° West 107 123 6,200  Climbing New York TRACON
Fri 03:53:51 PM 41.3167 -73.3167 294° West 126 145 6,100 -50 Descending New York TRACON
Fri 03:54:45 PM 41.3000 -73.3500 236° Southwest 123 142 6,100  Level New York TRACON
Fri 03:55:46 PM 41.2833 -73.3833 236° Southwest 127 146 6,100 286 Level New York TRACON
Fri 03:56:51 PM 41.2667 -73.4333 246° West 117 135 6,700 504 Climbing New York TRACON
Fri 03:57:45 PM 41.2667 -73.4667 270° West 98 113 7,100 211 Climbing New York TRACON
Fri 03:58:45 PM 41.2500 -73.5000 236° Southwest 124 143 7,100  Level New York TRACON
Fri 03:59:45 PM 41.2333 -73.5500 246° West 129 148 7,100  Level New York TRACON
Fri 04:00:45 PM 41.2167 -73.6000 246° West 134 154 7,100  Level New York TRACON
Fri 04:01:45 PM 41.2167 -73.6333 270° West 126 145 7,100  Level New York TRACON
Fri 04:02:51 PM 41.2000 -73.6833 246° West 128 147 7,100  Level New York TRACON
Fri 04:03:51 PM 41.2000 -73.7333 270° West 127 146 7,100 350 Level New York TRACON
Fri 04:04:51 PM 41.2000 -73.7667 270° West 90 104 7,800 500 Climbing New York TRACON
Fri 04:05:51 PM 41.1833 -73.8000 236° Southwest 93 107 8,100 150 Climbing New York TRACON
Fri 04:06:51 PM 41.1833 -73.8333 270° West 121 139 8,100 -50 Level New York TRACON
Fri 04:07:51 PM 41.1667 -73.8833 246° West 121 139 8,000 -50 Descending New York TRACON
Fri 04:08:51 PM 41.1667 -73.9167 270° West 122 140 8,000  Level New York TRACON
Fri 04:09:51 PM 41.1667 -73.9667 270° West 118 136 8,000 50 Level New York TRACON
Fri 04:10:51 PM 41.1500 -74.0167 246° West 124 143 8,100  Climbing New York TRACON
Fri 04:11:51 PM 41.1500 -74.0500 270° West 121 139 8,000 -50 Descending New York TRACON
Fri 04:12:51 PM 41.1333 -74.1000 246° West 122 140 8,000  Level New York TRACON
Fri 04:13:51 PM 41.1333 -74.1500 270° West 127 146 8,000  Level New York TRACON
Fri 04:14:51 PM 41.1167 -74.1833 236° Southwest 120 138 8,000  Level New York TRACON
Fri 04:15:51 PM 41.1167 -74.2333 270° West 121 139 8,000  Level New York TRACON
Fri 04:16:51 PM 41.1167 -74.2667 270° West 120 138 8,000  Level New York TRACON
Fri 04:17:51 PM 41.1000 -74.3167 246° West 122 140 8,000  Level New York TRACON
Fri 04:18:51 PM 41.1000 -74.3667 270° West 121 139 8,000  Level New York TRACON
Fri 04:19:51 PM 41.0833 -74.4000 236° Southwest 128 147 8,000  Level New York TRACON
Fri 04:20:51 PM 41.0500 -74.4333 217° Southwest 126 145 8,000 -2 Level New York TRACON
Fri 04:22:00 PM 41.0584 -74.4837 282° West  Level FlightAware Approximate
Fri 04:29:00 PM 40.8734 -74.6110 197° South  Level FlightAware Approximate
Fri 04:30:00 PM 40.8410 -74.6240 197° South  Level FlightAware Approximate
Fri 04:31:00 PM 40.8086 -74.6369 197° South  Level FlightAware Approximate
Fri 04:32:00 PM 40.7762 -74.6499 197° South  Level FlightAware Approximate
Fri 04:33:00 PM 40.7438 -74.6628 197° South  Level FlightAware Approximate
Fri 04:34:00 PM 40.7114 -74.6758 197° South  Level FlightAware Approximate
Fri 04:35:00 PM 40.6790 -74.6887 197° South  Level FlightAware Approximate
Fri 04:36:00 PM 40.6466 -74.7016 197° South  Level FlightAware Approximate
Fri 04:37:00 PM 40.6142 -74.7145 197° South  Level FlightAware Approximate
Fri 04:38:00 PM 40.5817 -74.7273 197° South  Level FlightAware Approximate
Fri 04:39:00 PM 40.5653 -74.7571 266° West  Level FlightAware Approximate
Fri 04:40:00 PM 40.5627 -74.8016 266° West  Level FlightAware Approximate
Fri 04:41:00 PM 40.5601 -74.8460 266° West  Level FlightAware Approximate
Fri 04:42:00 PM 40.5575 -74.8904 266° West  Level FlightAware Approximate
Fri 04:43:00 PM 40.5549 -74.9349 266° West  Level FlightAware Approximate
Fri 04:44:00 PM 40.5522 -74.9793 266° West  Level FlightAware Approximate
Fri 04:45:00 PM 40.5500 -75.0237 270° West  Level FlightAware Approximate
Fri 04:46:00 PM 40.5477 -75.0680 261° West  Level FlightAware Approximate
Fri 04:47:00 PM 40.5423 -75.1120 261° West  Level FlightAware Approximate
Fri 04:48:00 PM 40.5368 -75.1560 261° West  Level FlightAware Approximate
Fri 04:49:00 PM 40.5357 -75.1999 281° West  Level FlightAware Approximate
Fri 04:50:00 PM 40.5420 -75.2437 281° West  Level FlightAware Approximate
Fri 04:51:00 PM 40.5482 -75.2874 281° West  Level FlightAware Approximate
Fri 04:52:00 PM 40.5514 -75.3317 273° West  Level FlightAware Approximate
Fri 04:53:00 PM 40.5534 -75.3762 273° West  Level FlightAware Approximate
Fri 04:54:00 PM 40.5554 -75.4207 273° West  Level FlightAware Approximate
Fri 04:55:00 PM 40.5573 -75.4652 273° West  Level FlightAware Approximate
Fri 04:56:00 PM 40.5593 -75.5097 273° West  Level FlightAware Approximate
Fri 04:57:00 PM 40.5612 -75.5542 273° West  Level FlightAware Approximate
Fri 04:58:00 PM 40.5631 -75.5987 273° West  Level FlightAware Approximate
Fri 04:59:00 PM 40.5650 -75.6432 273° West  Level FlightAware Approximate
Fri 05:00:00 PM 40.5643 -75.6864 225° Southwest  Level FlightAware Approximate
Fri 05:01:00 PM 40.5406 -75.7182 225° Southwest  Level FlightAware Approximate
Fri 05:02:00 PM 40.5168 -75.7499 225° Southwest  Level FlightAware Approximate
Fri 05:03:00 PM 40.4931 -75.7816 225° Southwest  Level FlightAware Approximate
Fri 05:04:00 PM 40.4693 -75.8133 225° Southwest  Level FlightAware Approximate
Fri 05:05:00 PM 40.4455 -75.8450 225° Southwest  Level FlightAware Approximate
Fri 05:06:00 PM 40.4217 -75.8766 225° Southwest  Level FlightAware Approximate
Fri 05:07:00 PM 40.3979 -75.9083 225° Southwest  Level FlightAware Approximate
Fri 05:08:00 PM 40.3742 -75.9400 225° Southwest  Level FlightAware Approximate
Fri 05:09:00 PM 40.3504 -75.9717 226° Southwest  Level FlightAware Approximate
Fri 05:10:00 PM 40.3267 -76.0034 226° Southwest  Level FlightAware Approximate
Fri 05:11:00 PM 40.3030 -76.0350 225° Southwest  Level FlightAware Approximate
Fri 05:11:55 PM 40.0500 -76.1667 226° Southwest 132 152 7,900  Level Potomac TRACON
Fri 05:12:00 PM 40.2792 -76.0667 225° Southwest  Level FlightAware Approximate
Fri 05:12:55 PM 40.0167 -76.1833 201° Southwest 130 150 7,900  Level Potomac TRACON
Fri 05:13:00 PM 40.2555 -76.0983 226° Southwest  Level FlightAware Approximate
Fri 05:13:56 PM 39.9833 -76.2000 201° Southwest 132 152 7,900  Level Potomac TRACON
Fri 05:14:00 PM 40.2318 -76.1300 226° Southwest  Level FlightAware Approximate
Fri 05:15:00 PM 40.2080 -76.1617 226° Southwest  Level FlightAware Approximate
Fri 05:15:02 PM 39.9500 -76.2167 201° Southwest 132 152 7,900  Level Potomac TRACON
Fri 05:16:00 PM 40.1843 -76.1933 226° Southwest  Level FlightAware Approximate
Fri 05:16:02 PM 39.9167 -76.2333 201° Southwest 135 155 7,900  Level Potomac TRACON
Fri 05:17:00 PM 40.1606 -76.2249 226° Southwest  Level FlightAware Approximate
Fri 05:17:02 PM 39.8833 -76.2667 218° Southwest 136 157 7,900  Level Potomac TRACON
Fri 05:18:02 PM 39.8500 -76.2833 201° Southwest 135 155 7,900  Level Potomac TRACON
Fri 05:19:03 PM 39.8167 -76.3000 201° Southwest 132 152 7,900  Level Potomac TRACON
Fri 05:20:03 PM 39.7667 -76.3167 194° South 134 154 7,900  Level Potomac TRACON
Fri 05:21:03 PM 39.7333 -76.3333 201° Southwest 134 154 7,900  Level Potomac TRACON
Fri 05:22:03 PM 39.7000 -76.3500 201° Southwest 133 153 7,900  Level Potomac TRACON
Fri 05:23:03 PM 39.6667 -76.3833 218° Southwest 129 148 7,900  Level Potomac TRACON
Fri 05:24:03 PM 39.6333 -76.4000 201° Southwest 131 151 7,900  Level Potomac TRACON
Fri 05:25:03 PM 39.6000 -76.4167 201° Southwest 130 150 7,900 -397 Level Potomac TRACON
Fri 05:26:04 PM 39.5667 -76.4333 201° Southwest 160 184 7,100 -744 Descending Potomac TRACON
Fri 05:27:04 PM 39.5333 -76.4667 218° Southwest 159 183 6,400 -550 Descending Potomac TRACON
Fri 05:28:04 PM 39.4833 -76.4833 194° South 152 175 6,000 -150 Descending Potomac TRACON
Fri 05:29:04 PM 39.4500 -76.5000 201° Southwest 138 159 6,100 48 Climbing Potomac TRACON
Fri 05:30:10 PM 39.4167 -76.5167 201° Southwest 137 158 6,100  Level Potomac TRACON
Fri 05:31:10 PM 39.3833 -76.5333 201° Southwest 137 158 6,100  Level Potomac TRACON
Fri 05:32:10 PM 39.3500 -76.5667 218° Southwest 139 160 6,100 -50 Level Potomac TRACON
Fri 05:33:10 PM 39.3000 -76.5833 194° South 141 162 6,000 -50 Descending Potomac TRACON
Fri 05:34:10 PM 39.2667 -76.6000 201° Southwest 139 160 6,000 50 Level Potomac TRACON
Fri 05:35:11 PM 39.2333 -76.6167 201° Southwest 141 162 6,100 50 Climbing Potomac TRACON
Fri 05:36:11 PM 39.2000 -76.6500 218° Southwest 143 165 6,100  Level Potomac TRACON
Fri 05:37:05 PM 39.1667 -76.6667 201° Southwest 141 162 6,100  Level Potomac TRACON
Fri 05:38:11 PM 39.1167 -76.6667 180° South 145 167 6,100  Level Potomac TRACON
Fri 05:39:05 PM 39.0833 -76.6833 201° Southwest 145 167 6,100  Level Potomac TRACON
Fri 05:40:06 PM 39.0500 -76.6833 180° South 147 169 6,100 -50 Level Potomac TRACON
Fri 05:41:06 PM 39.0000 -76.6833 180° South 150 173 6,000 -150 Descending Potomac TRACON
Fri 05:42:06 PM 38.9667 -76.7000 201° Southwest 151 174 5,800 -450 Descending Potomac TRACON
Fri 05:43:06 PM 38.9167 -76.7000 180° South 167 192 5,100 -750 Descending Potomac TRACON
Fri 05:44:06 PM 38.8833 -76.7167 201° Southwest 162 186 4,300 -950 Descending Potomac TRACON
Fri 05:45:06 PM 38.8500 -76.7667 229° Southwest 146 168 3,200 -1,140 Descending Potomac TRACON
Fri 05:46:07 PM 38.8333 -76.8000 237° Southwest 148 170 2,000 -595 Descending Potomac TRACON
Fri 05:47:07 PM 38.8000 -76.8333 218° Southwest 115 132 2,000 -100 Level Potomac TRACON
Fri 05:48:07 PM 38.8000 -76.8667 270° West 111 128 1,800 -200 Descending Potomac TRACON
Fri 05:49:07 PM 38.7833 -76.9000 237° Southwest 96 110 1,600 -300 Descending Potomac TRACON
Fri 05:50:07 PM 38.7667 -76.9333 237° Southwest 93 107 1,200 -600 Descending Potomac TRACON
Fri 05:51:07 PM 38.7500 -76.9500 218° Southwest 76 87 400 -800 Descending Potomac TRACON
Fri 05:53:00 PM 38.7486 -76.9559 210° Southwest  Level Estimated
Fri 06:00:00 PM 38.7486 -76.9559 210° Southwest  Level Estimated
Fri 06:01:00 PM 38.7486 -76.9559 210° Southwest  Level Estimated
Fri 06:02:00 PM 38.7486 -76.9559 210° Southwest  Level Estimated
Fri 06:03:00 PM 38.7486 -76.9559 210° Southwest  Level Estimated

Login

Don't have an account? Register now (free) for customized features, flight alerts, and more!